createdAt,value
2022-11-28T00:03:42.752Z,972.27
2022-11-28T00:09:13.934Z,972.4
2022-11-28T00:14:45.939Z,972.66
2022-11-28T00:20:17.718Z,972.55
2022-11-28T00:25:49.387Z,972.71
2022-11-28T00:31:25.672Z,972.79
2022-11-28T00:36:56.962Z,972.89
2022-11-28T00:42:29.112Z,972.71
2022-11-28T00:48:00.682Z,972.86
2022-11-28T00:53:32.248Z,972.37
2022-11-28T00:59:04.016Z,972.54
2022-11-28T01:04:35.737Z,972.73
2022-11-28T01:10:07.542Z,972.49
2022-11-28T01:15:39.222Z,972.37
2022-11-28T01:21:11.301Z,971.57
2022-11-28T01:26:42.637Z,971.93
2022-11-28T01:32:20.663Z,971.73
2022-11-28T01:37:52.507Z,971.79
2022-11-28T01:43:24.039Z,971.5
2022-11-28T01:48:56.275Z,971.52
2022-11-28T01:54:27.573Z,971.7
2022-11-28T01:59:59.348Z,971.62
2022-11-28T02:05:30.936Z,971.37
2022-11-28T02:11:02.771Z,971.37
2022-11-28T02:16:34.650Z,971.04
2022-11-28T02:22:06.083Z,971.18
2022-11-28T02:27:37.812Z,970.46
2022-11-28T02:33:16.155Z,970.43
2022-11-28T02:38:47.607Z,970.55
2022-11-28T02:44:19.768Z,970.56
2022-11-28T02:49:51.326Z,970.98
2022-11-28T02:55:22.973Z,970.9
2022-11-28T03:00:55.286Z,970.3
2022-11-28T03:06:26.345Z,970.51
2022-11-28T03:11:58.088Z,970.25
2022-11-28T03:17:29.859Z,970.68
2022-11-28T03:23:01.590Z,971.1
2022-11-28T03:28:33.125Z,970.79
2022-11-28T03:34:09.378Z,970.52
2022-11-28T03:39:41.295Z,970.94
2022-11-28T03:45:12.997Z,970.72
2022-11-28T03:50:44.638Z,970.63
2022-11-28T03:56:16.594Z,970.66
2022-11-28T04:01:48.116Z,970.78
2022-11-28T04:07:19.657Z,970.62
2022-11-28T04:12:51.173Z,970.77
2022-11-28T04:18:23.228Z,970.72
2022-11-28T04:23:54.682Z,970.59
2022-11-28T04:29:26.576Z,970.68
2022-11-28T04:35:04.634Z,970.55
2022-11-28T04:40:36.277Z,970.63
2022-11-28T04:46:08.345Z,970.49
2022-11-28T04:51:40.033Z,969.77
2022-11-28T04:57:11.743Z,969.94
2022-11-28T05:02:43.242Z,969.79
2022-11-28T05:08:15.182Z,969.67
2022-11-28T05:13:46.575Z,969.78
2022-11-28T05:19:18.781Z,970.23
2022-11-28T05:24:50.083Z,970.61
2022-11-28T05:30:22.226Z,970.89
2022-11-28T05:36:00.207Z,970.87
2022-11-28T05:41:31.903Z,970.92
2022-11-28T05:47:03.586Z,970.75
2022-11-28T05:52:35.194Z,970.93
2022-11-28T05:58:07.062Z,970.88
2022-11-28T06:03:38.670Z,970.76
2022-11-28T06:09:10.427Z,970.84
2022-11-28T06:14:42.178Z,970.39
2022-11-28T06:20:14.079Z,970.87
2022-11-28T06:25:46.242Z,970.73
2022-11-28T06:31:17.359Z,970.92
2022-11-28T06:36:53.244Z,971.08
2022-11-28T06:42:24.999Z,971.02
2022-11-28T06:47:56.882Z,971.09
2022-11-28T06:53:32.339Z,970.98
2022-11-28T06:59:00.342Z,970.75
2022-11-28T07:04:31.885Z,969.93
2022-11-28T07:10:03.675Z,970.75
2022-11-28T07:15:35.499Z,970.87
2022-11-28T07:21:07.239Z,970.85
2022-11-28T07:26:39.055Z,971.13
2022-11-28T07:32:11.920Z,971.4
2022-11-28T07:37:49.698Z,971.49
2022-11-28T07:43:21.450Z,971.48
2022-11-28T07:48:53.391Z,971.74
2022-11-28T07:54:25.066Z,971.6
2022-11-28T07:59:56.662Z,971.23
2022-11-28T08:05:28.699Z,971.28
2022-11-28T08:11:00.282Z,971.61
2022-11-28T08:16:31.836Z,971.93
2022-11-28T08:22:03.866Z,972.01
2022-11-28T08:27:35.377Z,972.05
2022-11-28T08:33:07.159Z,972.21
2022-11-28T08:39:22.697Z,972.24
2022-11-28T08:44:14.719Z,972.32
2022-11-28T08:49:47.002Z,972.42
2022-11-28T08:55:32.861Z,972.72
2022-11-28T09:00:49.913Z,972.86
2022-11-28T09:06:21.773Z,972.95
2022-11-28T09:11:53.643Z,973.23
2022-11-28T09:17:25.222Z,973.32
2022-11-28T09:22:56.650Z,973.19
2022-11-28T09:28:28.841Z,973.61
2022-11-28T09:34:00.202Z,973.78
2022-11-28T09:40:13.937Z,973.81
2022-11-28T09:45:09.909Z,973.65
2022-11-28T09:50:41.634Z,973.38
2022-11-28T09:56:13.543Z,973.26
2022-11-28T10:01:45.163Z,973.84
2022-11-28T10:07:16.944Z,974.02
2022-11-28T10:12:48.657Z,973.81
2022-11-28T10:18:20.546Z,973.19
2022-11-28T10:23:52.335Z,973.78
2022-11-28T10:29:23.786Z,974.22
2022-11-28T10:34:55.566Z,973.65
2022-11-28T10:40:31.836Z,973.45
2022-11-28T10:46:03.754Z,973.78
2022-11-28T10:51:35.283Z,973.63
2022-11-28T10:57:06.949Z,973.65
2022-11-28T11:02:38.494Z,973.88
2022-11-28T11:08:10.888Z,974.14
2022-11-28T11:13:41.915Z,973.65
2022-11-28T11:19:13.712Z,973.73
2022-11-28T11:24:45.315Z,973.65
2022-11-28T11:30:17.203Z,973.91
2022-11-28T11:35:48.974Z,974.06
2022-11-28T11:41:25.146Z,973.9
2022-11-28T11:46:56.902Z,973.82
2022-11-28T11:52:28.310Z,974.04
2022-11-28T11:53:17.711Z,973.76
2022-11-28T11:58:49.730Z,973.94
2022-11-28T12:04:51.208Z,973.97
2022-11-28T12:09:55.544Z,973.68
2022-11-28T12:15:24.757Z,974.0
2022-11-28T12:20:56.738Z,973.95
2022-11-28T12:26:28.157Z,973.72
2022-11-28T12:32:00.007Z,973.95
2022-11-28T12:38:12.000Z,974.07
2022-11-28T12:43:03.624Z,973.99
2022-11-28T12:48:35.302Z,973.99
2022-11-28T12:54:11.442Z,974.11
2022-11-28T12:59:44.578Z,974.06
2022-11-28T13:05:14.732Z,974.08
2022-11-28T13:10:46.613Z,973.69
2022-11-28T13:16:27.712Z,974.01
2022-11-28T13:21:50.440Z,973.98
2022-11-28T13:27:21.686Z,973.71
2022-11-28T13:32:53.349Z,973.57
2022-11-28T13:39:12.662Z,973.52
2022-11-28T13:43:57.207Z,973.59
2022-11-28T13:49:28.475Z,973.56
2022-11-28T13:55:06.402Z,973.3
2022-11-28T14:00:38.459Z,973.18
2022-11-28T14:06:10.176Z,973.5
2022-11-28T14:11:42.015Z,973.45
2022-11-28T14:17:13.238Z,973.4
2022-11-28T14:22:45.158Z,973.22
2022-11-28T14:28:17.074Z,973.18
2022-11-28T14:33:48.858Z,973.2
2022-11-28T14:39:20.420Z,973.58
2022-11-28T14:44:51.789Z,973.66
2022-11-28T14:50:23.799Z,973.28
2022-11-28T14:56:01.979Z,973.61
2022-11-28T15:01:33.556Z,973.98
2022-11-28T15:07:05.547Z,973.91
2022-11-28T15:12:37.208Z,973.86
2022-11-28T15:18:08.936Z,973.89
2022-11-28T15:23:40.395Z,974.12
2022-11-28T15:29:12.170Z,974.14
2022-11-28T15:34:44.987Z,974.16
2022-11-28T15:40:15.595Z,974.0
2022-11-28T15:45:47.450Z,974.0
2022-11-28T15:51:19.152Z,973.82
2022-11-28T15:56:55.351Z,973.8
2022-11-28T16:02:27.129Z,973.91
2022-11-28T16:08:00.571Z,973.88
2022-11-28T16:13:30.274Z,973.68
2022-11-28T16:19:02.046Z,973.65
2022-11-28T16:24:42.430Z,974.23
2022-11-28T16:30:05.586Z,974.4
2022-11-28T16:35:37.138Z,973.87
2022-11-28T16:41:09.111Z,974.12
2022-11-28T16:46:40.637Z,974.42
2022-11-28T16:52:12.391Z,974.44
2022-11-28T16:57:48.434Z,974.26
2022-11-28T17:03:20.095Z,974.37
2022-11-28T17:08:52.066Z,974.45
2022-11-28T17:14:23.564Z,974.06
2022-11-28T17:19:55.290Z,974.07
2022-11-28T17:25:27.003Z,974.36
2022-11-28T17:30:58.849Z,974.64
2022-11-28T17:36:30.527Z,974.7
2022-11-28T17:42:02.221Z,974.62
2022-11-28T17:47:34.234Z,974.58
2022-11-28T17:53:05.745Z,974.52
2022-11-28T17:58:41.822Z,974.45
2022-11-28T18:04:13.617Z,974.4
2022-11-28T18:09:46.327Z,974.49
2022-11-28T18:15:17.293Z,974.63
2022-11-28T18:20:48.718Z,974.74
2022-11-28T18:26:20.481Z,974.85
2022-11-28T18:31:52.357Z,974.93
2022-11-28T18:37:23.845Z,974.93
2022-11-28T18:42:55.886Z,974.93
2022-11-28T18:48:27.351Z,974.75
2022-11-28T18:53:59.168Z,974.89
2022-11-28T18:59:35.162Z,974.84
2022-11-28T19:05:06.734Z,974.93
2022-11-28T19:10:38.493Z,974.99
2022-11-28T19:16:11.336Z,975.04
2022-11-28T19:21:42.055Z,975.08
2022-11-28T19:27:15.559Z,974.91
2022-11-28T19:32:45.557Z,974.89
2022-11-28T19:38:17.239Z,974.94
2022-11-28T19:43:48.927Z,974.99
2022-11-28T19:49:20.556Z,974.87
2022-11-28T19:54:52.665Z,974.78
2022-11-28T20:00:28.265Z,974.71
2022-11-28T20:06:00.231Z,974.78
2022-11-28T20:11:32.123Z,974.91
2022-11-28T20:17:03.567Z,974.92
2022-11-28T20:22:35.306Z,975.14
2022-11-28T20:28:07.241Z,975.21
2022-11-28T20:33:38.944Z,975.31
2022-11-28T20:39:10.641Z,975.47
2022-11-28T20:44:42.230Z,975.52
2022-11-28T20:50:14.215Z,975.5
2022-11-28T20:55:45.834Z,975.51
2022-11-28T21:01:22.007Z,975.54
2022-11-28T21:06:53.585Z,975.57
2022-11-28T21:12:25.345Z,975.62
2022-11-28T21:17:56.985Z,975.64
2022-11-28T21:23:28.761Z,975.72
2022-11-28T21:29:00.410Z,975.78
2022-11-28T21:34:32.106Z,975.83
2022-11-28T21:40:03.926Z,975.86
2022-11-28T21:45:35.678Z,975.82
2022-11-28T21:51:07.193Z,975.85
2022-11-28T21:56:39.020Z,975.72
2022-11-28T22:02:15.626Z,975.81
2022-11-28T22:07:47.272Z,975.85
2022-11-28T22:13:18.666Z,975.93
2022-11-28T22:18:50.262Z,976.0
2022-11-28T22:24:22.026Z,975.91
2022-11-28T22:29:53.898Z,975.92
2022-11-28T22:35:25.505Z,976.07
2022-11-28T22:40:57.286Z,976.05
2022-11-28T22:46:28.911Z,976.12
2022-11-28T22:52:00.753Z,976.2
2022-11-28T22:57:32.404Z,976.26
2022-11-28T23:03:10.849Z,976.29
2022-11-28T23:08:42.289Z,976.3
2022-11-28T23:14:14.705Z,976.24
2022-11-28T23:19:45.830Z,976.16
2022-11-28T23:25:17.496Z,976.31
2022-11-28T23:30:49.397Z,976.41
2022-11-28T23:36:21.101Z,976.44
2022-11-28T23:41:52.901Z,976.43
2022-11-28T23:47:24.390Z,976.37
2022-11-28T23:52:56.056Z,976.38
2022-11-28T23:58:28.147Z,976.4
